Time;durP1;ratioP1;P1;durP2;ratioP2;P2;SDS_P1;SDS_P2;PMS_P1;PMS_P2;Temp;Humidity;BMP_temperature;BMP_pressure;BME280_temperature;BME280_humidity;BME280_pressure;Samples;Min_cycle;Max_cycle;Signal;HPM_P1;HPM_P2
2022/11/09 00:01:29;;;;;;;;;0.00;0.00;;;;;;;;4688058;30;45344;-94
2022/11/09 00:03:55;;;;;;;;;0.00;0.00;;;;;;;;4666123;30;45270;-93
2022/11/09 00:06:20;;;;;;;;;0.00;0.00;;;;;;;;4650624;30;46097;-94
2022/11/09 00:08:46;;;;;;;;;0.00;0.00;;;;;;;;4651978;30;45390;-93
2022/11/09 00:11:11;;;;;;;;;0.00;0.00;;;;;;;;4651658;30;45520;-93
2022/11/09 00:13:37;;;;;;;;;0.00;0.00;;;;;;;;4655372;30;47122;-94
2022/11/09 00:16:03;;;;;;;;;0.00;0.00;;;;;;;;4656199;30;45552;-94
2022/11/09 00:18:28;;;;;;;;;0.00;0.00;;;;;;;;4726932;30;45498;-95
2022/11/09 00:20:54;;;;;;;;;0.00;0.00;;;;;;;;4730617;30;45452;-95
2022/11/09 00:23:19;;;;;;;;;0.00;0.00;;;;;;;;4734463;30;42415;-94
2022/11/09 00:25:44;;;;;;;;;0.00;0.00;;;;;;;;4735615;30;28599;-94
2022/11/09 00:28:10;;;;;;;;;0.00;0.00;;;;;;;;4744055;29;45548;-94
2022/11/09 00:30:35;;;;;;;;;0.00;0.00;;;;;;;;4754980;29;38955;-94
2022/11/09 00:33:02;;;;;;;;;0.00;0.00;;;;;;;;4756777;29;30361;-94
2022/11/09 00:35:28;;;;;;;;;0.00;0.00;;;;;;;;4743857;29;29637;-92
2022/11/09 00:37:53;;;;;;;;;0.00;0.00;;;;;;;;4751311;29;38107;-94
2022/11/09 00:40:18;;;;;;;;;0.00;0.00;;;;;;;;4764780;29;44755;-94
2022/11/09 00:42:44;;;;;;;;;0.00;0.00;;;;;;;;4751526;30;25634;-95
2022/11/09 00:45:09;;;;;;;;;0.00;0.00;;;;;;;;4756824;29;27805;-93
2022/11/09 00:47:34;;;;;;;;;0.00;0.00;;;;;;;;4753100;30;8899;-95
2022/11/09 00:50:00;;;;;;;;;0.00;0.00;;;;;;;;4756861;29;23016;-95
2022/11/09 00:52:25;;;;;;;;;0.00;0.00;;;;;;;;4757601;30;27734;-94
2022/11/09 00:54:50;;;;;;;;;0.00;0.00;;;;;;;;4737180;30;42898;-94
2022/11/09 00:57:15;;;;;;;;;0.00;0.00;;;;;;;;4751159;30;26940;-94
2022/11/09 00:59:41;;;;;;;;;0.00;0.00;;;;;;;;4731489;30;45265;-95
2022/11/09 01:02:06;;;;;;;;;0.00;0.00;;;;;;;;4726227;30;45291;-94
2022/11/09 01:04:31;;;;;;;;;0.00;0.00;;;;;;;;4735019;30;28907;-94
2022/11/09 01:06:57;;;;;;;;;0.00;0.00;;;;;;;;4734639;30;28446;-95
2022/11/09 01:09:23;;;;;;;;;0.00;0.00;;;;;;;;4742825;29;42338;-94
2022/11/09 01:11:48;;;;;;;;;0.00;0.00;;;;;;;;4732410;30;48384;-94
2022/11/09 01:14:13;;;;;;;;;0.00;0.00;;;;;;;;4734496;30;28738;-94
2022/11/09 01:16:41;;;;;;;;;0.00;0.00;;;;;;;;4731714;30;44759;-96
2022/11/09 01:19:10;;;;;;;;;0.00;0.00;;;;;;;;4731558;30;45294;-94
2022/11/09 01:21:35;;;;;;;;;0.00;0.00;;;;;;;;4752976;30;9783;-95
2022/11/09 01:24:00;;;;;;;;;0.00;0.00;;;;;;;;4753230;30;11702;-95
2022/11/09 01:26:26;;;;;;;;;0.00;0.00;;;;;;;;4752816;30;8863;-95
2022/11/09 01:28:51;;;;;;;;;0.00;0.00;;;;;;;;4752688;30;8913;-95
2022/11/09 01:31:18;;;;;;;;;0.00;0.00;;;;;;;;4753185;30;8872;-96
2022/11/09 01:33:43;;;;;;;;;0.00;0.00;;;;;;;;4753187;30;8907;-95
2022/11/09 01:36:12;;;;;;;;;0.00;0.00;;;;;;;;4753286;30;11742;-94
2022/11/09 01:38:37;;;;;;;;;0.00;0.00;;;;;;;;4754242;30;8868;-95
2022/11/09 01:41:06;;;;;;;;;0.00;0.00;;;;;;;;4770570;29;11791;-94
2022/11/09 01:43:32;;;;;;;;;0.00;0.00;;;;;;;;4774827;29;8802;-94
2022/11/09 01:45:59;;;;;;;;;0.00;0.00;;;;;;;;4779745;29;11721;-95
2022/11/09 01:48:28;;;;;;;;;0.00;0.00;;;;;;;;4780955;29;8861;-94
2022/11/09 01:50:56;;;;;;;;;0.00;0.00;;;;;;;;4781300;29;11678;-94
2022/11/09 01:53:28;;;;;;;;;0.00;0.00;;;;;;;;4762177;29;28854;-94
2022/11/09 01:55:56;;;;;;;;;0.00;0.00;;;;;;;;4757563;29;28366;-94
2022/11/09 01:58:24;;;;;;;;;0.00;0.00;;;;;;;;4768826;29;27830;-95
2022/11/09 02:00:50;;;;;;;;;0.00;0.00;;;;;;;;4776781;29;8861;-95
2022/11/09 02:03:21;;;;;;;;;0.00;0.00;;;;;;;;4771178;30;11714;-94
2022/11/09 02:05:46;;;;;;;;;0.00;0.00;;;;;;;;4758581;30;8840;-95
2022/11/09 02:08:14;;;;;;;;;0.00;0.00;;;;;;;;4769804;29;11744;-95
2022/11/09 02:10:42;;;;;;;;;0.00;0.00;;;;;;;;4776263;29;8850;-95
2022/11/09 02:13:09;;;;;;;;;0.00;0.00;;;;;;;;4775441;29;11762;-94
2022/11/09 02:15:35;;;;;;;;;0.00;0.00;;;;;;;;4776051;29;11658;-94
2022/11/09 02:18:01;;;;;;;;;0.00;0.00;;;;;;;;4775448;29;12434;-94
2022/11/09 02:20:27;;;;;;;;;0.00;0.00;;;;;;;;4775261;29;8872;-94
2022/11/09 02:22:52;;;;;;;;;0.00;0.00;;;;;;;;4765331;30;11746;-94
2022/11/09 02:25:18;;;;;;;;;0.00;0.00;;;;;;;;4757969;30;8890;-94
2022/11/09 02:27:44;;;;;;;;;0.00;0.00;;;;;;;;4762991;29;8999;-94
2022/11/09 02:30:10;;;;;;;;;0.00;0.00;;;;;;;;4775710;29;8934;-94
2022/11/09 02:32:36;;;;;;;;;0.00;0.00;;;;;;;;4775937;29;11634;-95
2022/11/09 02:35:01;;;;;;;;;0.00;0.00;;;;;;;;4776033;29;12471;-94
2022/11/09 02:37:45;;;;;;;;;0.00;0.00;;;;;;;;4773827;29;8889;-94
2022/11/09 02:40:14;;;;;;;;;0.00;0.00;;;;;;;;4775587;29;8935;-94
2022/11/09 02:42:39;;;;;;;;;0.00;0.00;;;;;;;;4775116;29;11689;-94
2022/11/09 02:45:05;;;;;;;;;0.00;0.00;;;;;;;;4774908;29;11718;-94
2022/11/09 02:47:30;;;;;;;;;0.00;0.00;;;;;;;;4758068;30;8878;-95
2022/11/09 02:49:56;;;;;;;;;0.00;0.00;;;;;;;;4757934;30;8891;-94
2022/11/09 02:52:22;;;;;;;;;0.00;0.00;;;;;;;;4759194;30;8871;-94
2022/11/09 02:54:47;;;;;;;;;0.00;0.00;;;;;;;;4756088;30;11714;-94
2022/11/09 02:57:12;;;;;;;;;0.00;0.00;;;;;;;;4755316;30;8891;-94
2022/11/09 02:59:37;;;;;;;;;0.00;0.00;;;;;;;;4756107;30;8884;-95
2022/11/09 03:02:03;;;;;;;;;0.00;0.00;;;;;;;;4772595;30;8848;-93
2022/11/09 03:04:28;;;;;;;;;0.00;0.00;;;;;;;;4758895;30;8876;-93
2022/11/09 03:06:53;;;;;;;;;0.00;0.00;;;;;;;;4767844;29;8878;-94
2022/11/09 03:09:18;;;;;;;;;0.00;0.00;;;;;;;;4773014;30;8872;-93
2022/11/09 03:11:44;;;;;;;;;0.00;0.00;;;;;;;;4755008;30;8868;-94
2022/11/09 03:14:09;;;;;;;;;0.00;0.00;;;;;;;;4755356;30;8868;-93
2022/11/09 03:16:35;;;;;;;;;0.00;0.00;;;;;;;;4766591;29;8869;-94
2022/11/09 03:19:01;;;;;;;;;0.00;0.00;;;;;;;;4772524;29;8862;-94
2022/11/09 03:21:27;;;;;;;;;0.00;0.00;;;;;;;;4772148;29;8873;-93
2022/11/09 03:23:53;;;;;;;;;0.00;0.00;;;;;;;;4772317;29;8857;-93
2022/11/09 03:26:18;;;;;;;;;0.00;0.00;;;;;;;;4771910;29;8833;-94
2022/11/09 03:28:43;;;;;;;;;0.00;0.00;;;;;;;;4758207;30;8911;-94
2022/11/09 03:31:08;;;;;;;;;0.00;0.00;;;;;;;;4764590;29;9679;-94
2022/11/09 03:33:34;;;;;;;;;0.00;0.00;;;;;;;;4772122;29;8907;-94
2022/11/09 03:35:59;;;;;;;;;0.00;0.00;;;;;;;;4772179;29;8861;-93
2022/11/09 03:38:25;;;;;;;;;0.00;0.00;;;;;;;;4772306;29;8850;-93
2022/11/09 03:40:50;;;;;;;;;0.00;0.00;;;;;;;;4787478;29;8878;-95
2022/11/09 03:43:15;;;;;;;;;0.00;0.00;;;;;;;;4766597;30;8902;-94
2022/11/09 03:45:40;;;;;;;;;0.00;0.00;;;;;;;;4754289;30;9609;-93
2022/11/09 03:48:06;;;;;;;;;0.00;0.00;;;;;;;;4754138;30;8864;-93
2022/11/09 03:50:32;;;;;;;;;0.00;0.00;;;;;;;;4754347;30;8937;-94
2022/11/09 03:52:57;;;;;;;;;0.00;0.00;;;;;;;;4763927;29;8880;-94
2022/11/09 03:55:23;;;;;;;;;0.00;0.00;;;;;;;;4771481;29;8915;-94
2022/11/09 03:57:48;;;;;;;;;0.00;0.00;;;;;;;;4771497;29;8869;-94
2022/11/09 04:00:15;;;;;;;;;0.00;0.00;;;;;;;;4772001;29;8888;-94
2022/11/09 04:02:40;;;;;;;;;0.00;0.00;;;;;;;;4772195;29;9138;-94
2022/11/09 04:05:05;;;;;;;;;0.00;0.00;;;;;;;;4771782;29;11693;-93
2022/11/09 04:07:31;;;;;;;;;0.00;0.00;;;;;;;;4770693;29;8857;-95
2022/11/09 04:09:56;;;;;;;;;0.00;0.00;;;;;;;;4772205;29;8879;-92
2022/11/09 04:12:21;;;;;;;;;0.00;0.00;;;;;;;;4771963;29;8865;-94
2022/11/09 04:14:47;;;;;;;;;0.00;0.00;;;;;;;;4772913;29;8885;-94
2022/11/09 04:17:12;;;;;;;;;0.00;0.00;;;;;;;;4772542;29;8992;-94
2022/11/09 04:19:37;;;;;;;;;0.00;0.00;;;;;;;;4775374;29;8951;-93
2022/11/09 04:22:02;;;;;;;;;0.00;0.00;;;;;;;;4774909;29;8873;-94
2022/11/09 04:24:27;;;;;;;;;0.00;0.00;;;;;;;;4792565;29;8857;-94
2022/11/09 04:26:53;;;;;;;;;0.00;0.00;;;;;;;;4773003;29;8873;-94
2022/11/09 04:29:18;;;;;;;;;0.00;0.00;;;;;;;;4763881;29;9000;-92
2022/11/09 04:31:43;;;;;;;;;0.00;0.00;;;;;;;;4771456;29;8861;-94
2022/11/09 04:34:08;;;;;;;;;0.00;0.00;;;;;;;;4767485;30;8900;-93
2022/11/09 04:36:34;;;;;;;;;0.00;0.00;;;;;;;;4752629;30;8887;-92
2022/11/09 04:38:59;;;;;;;;;0.00;0.00;;;;;;;;4753265;30;8878;-93
2022/11/09 04:41:26;;;;;;;;;0.00;0.00;;;;;;;;4752907;30;8864;-93
2022/11/09 04:43:51;;;;;;;;;0.00;0.00;;;;;;;;4769114;30;8953;-94
2022/11/09 04:46:16;;;;;;;;;0.00;0.00;;;;;;;;4753232;30;11722;-94
2022/11/09 04:48:42;;;;;;;;;0.00;0.00;;;;;;;;4752762;29;8850;-93
2022/11/09 04:51:09;;;;;;;;;0.00;0.00;;;;;;;;4752841;30;8963;-94
2022/11/09 04:53:35;;;;;;;;;0.00;0.00;;;;;;;;4755515;29;11678;-94
2022/11/09 04:56:00;;;;;;;;;0.00;0.00;;;;;;;;4770701;29;8842;-93
2022/11/09 04:58:25;;;;;;;;;0.00;0.00;;;;;;;;4770865;29;8853;-94
2022/11/09 05:00:52;;;;;;;;;0.00;0.00;;;;;;;;4770857;29;8888;-93
2022/11/09 05:03:17;;;;;;;;;0.00;0.00;;;;;;;;4770862;29;8865;-94
2022/11/09 05:05:43;;;;;;;;;0.00;0.00;;;;;;;;4770537;29;8877;-94
2022/11/09 05:08:08;;;;;;;;;0.00;0.00;;;;;;;;4770439;29;8880;-94
2022/11/09 05:10:34;;;;;;;;;0.00;0.00;;;;;;;;4752993;30;8887;-94
2022/11/09 05:13:00;;;;;;;;;0.00;0.00;;;;;;;;4752532;30;8860;-94
2022/11/09 05:15:26;;;;;;;;;0.00;0.00;;;;;;;;4768860;30;8816;-94
2022/11/09 05:17:51;;;;;;;;;0.00;0.00;;;;;;;;4752497;30;8868;-93
2022/11/09 05:20:16;;;;;;;;;0.00;0.00;;;;;;;;4749565;30;8905;-94
2022/11/09 05:25:25;;;;;;;;;0.00;0.00;;;;;;;;4752249;30;8862;-94
2022/11/09 05:27:51;;;;;;;;;0.00;0.00;;;;;;;;4751878;30;8904;-94
2022/11/09 05:30:16;;;;;;;;;0.00;0.00;;;;;;;;4752497;30;9649;-94
2022/11/09 05:32:41;;;;;;;;;0.00;0.00;;;;;;;;4737422;30;8893;-93
2022/11/09 05:35:07;;;;;;;;;0.00;0.00;;;;;;;;4755671;30;9666;-94
2022/11/09 05:37:32;;;;;;;;;0.00;0.00;;;;;;;;4756681;30;8900;-94
2022/11/09 05:39:57;;;;;;;;;0.00;0.00;;;;;;;;4757169;30;8880;-94
2022/11/09 05:42:23;;;;;;;;;0.00;0.00;;;;;;;;4750171;30;8892;-94
2022/11/09 05:44:48;;;;;;;;;0.00;0.00;;;;;;;;4749720;30;8882;-94
2022/11/09 05:47:13;;;;;;;;;0.00;0.00;;;;;;;;4750714;30;8838;-94
2022/11/09 05:49:38;;;;;;;;;0.00;0.00;;;;;;;;4749377;30;8866;-93
2022/11/09 05:52:04;;;;;;;;;0.00;0.00;;;;;;;;4749674;30;8866;-95
2022/11/09 05:54:29;;;;;;;;;0.00;0.00;;;;;;;;4765121;30;8890;-93
2022/11/09 05:56:54;;;;;;;;;0.00;0.00;;;;;;;;4767164;30;8879;-94
2022/11/09 05:59:19;;;;;;;;;0.00;0.00;;;;;;;;4767682;30;8867;-94
2022/11/09 06:01:45;;;;;;;;;0.00;0.00;;;;;;;;4767295;30;8866;-94
2022/11/09 06:04:10;;;;;;;;;0.00;0.00;;;;;;;;4767211;30;8895;-95
2022/11/09 06:06:35;;;;;;;;;0.00;0.00;;;;;;;;4767256;30;8974;-94
2022/11/09 06:09:00;;;;;;;;;0.00;0.00;;;;;;;;4738832;30;8988;-93
2022/11/09 06:11:27;;;;;;;;;0.00;0.00;;;;;;;;4747157;30;26728;-93
2022/11/09 06:13:52;;;;;;;;;0.00;0.00;;;;;;;;4745135;30;30803;-94
2022/11/09 06:16:18;;;;;;;;;0.00;0.00;;;;;;;;4762601;30;28548;-94
2022/11/09 06:18:43;;;;;;;;;0.00;0.00;;;;;;;;4754930;30;8881;-94
2022/11/09 06:21:08;;;;;;;;;0.00;0.00;;;;;;;;4750543;30;8850;-94
2022/11/09 06:23:34;;;;;;;;;0.00;0.00;;;;;;;;4749606;30;28467;-95
2022/11/09 06:26:05;;;;;;;;;0.00;0.00;;;;;;;;4767484;30;29562;-94
2022/11/09 06:28:30;;;;;;;;;0.00;0.00;;;;;;;;4753416;30;8958;-93
2022/11/09 06:30:56;;;;;;;;;0.00;0.00;;;;;;;;4751985;30;9752;-94
2022/11/09 06:33:21;;;;;;;;;0.00;0.00;;;;;;;;4758517;30;28010;-94
2022/11/09 06:35:46;;;;;;;;;0.00;0.00;;;;;;;;4756218;30;29507;-94
2022/11/09 06:38:12;;;;;;;;;0.00;0.00;;;;;;;;4738639;30;8913;-94
2022/11/09 06:40:38;;;;;;;;;0.00;0.00;;;;;;;;4756423;30;9013;-94
2022/11/09 06:43:03;;;;;;;;;0.00;0.00;;;;;;;;4770192;30;8951;-94
2022/11/09 06:45:29;;;;;;;;;0.00;0.00;;;;;;;;4771861;30;9616;-95
2022/11/09 06:47:58;;;;;;;;;0.00;0.00;;;;;;;;4772263;30;8881;-94
2022/11/09 06:50:24;;;;;;;;;0.00;0.00;;;;;;;;4772623;30;8855;-94
2022/11/09 06:52:49;;;;;;;;;0.00;0.00;;;;;;;;4773532;30;8870;-93
2022/11/09 06:55:14;;;;;;;;;0.00;0.00;;;;;;;;4774882;30;8977;-94
2022/11/09 06:57:39;;;;;;;;;0.00;0.00;;;;;;;;4774450;30;8877;-93
2022/11/09 07:00:06;;;;;;;;;0.00;0.00;;;;;;;;4774669;30;8871;-94
2022/11/09 07:02:31;;;;;;;;;0.00;0.00;;;;;;;;4768923;30;8855;-95
2022/11/09 07:04:56;;;;;;;;;0.00;0.00;;;;;;;;4754802;30;8874;-95
2022/11/09 07:07:22;;;;;;;;;0.00;0.00;;;;;;;;4769570;30;8887;-94
2022/11/09 07:09:47;;;;;;;;;0.00;0.00;;;;;;;;4754532;30;8945;-94
2022/11/09 07:12:13;;;;;;;;;0.00;0.00;;;;;;;;4766475;30;27707;-94
2022/11/09 07:14:38;;;;;;;;;0.00;0.00;;;;;;;;4766164;30;27938;-94
2022/11/09 07:17:03;;;;;;;;;0.00;0.00;;;;;;;;4768956;30;8863;-94
2022/11/09 07:19:29;;;;;;;;;0.00;0.00;;;;;;;;4769285;30;8887;-94
2022/11/09 07:21:55;;;;;;;;;0.00;0.00;;;;;;;;4770320;30;8863;-93
2022/11/09 07:24:20;;;;;;;;;0.00;0.00;;;;;;;;4769278;30;8862;-96
2022/11/09 07:26:46;;;;;;;;;0.00;0.00;;;;;;;;4772754;30;8899;-96
2022/11/09 07:29:12;;;;;;;;;0.00;0.00;;;;;;;;4772538;30;8810;-96
2022/11/09 07:31:37;;;;;;;;;0.00;0.00;;;;;;;;4777846;30;8879;-90
2022/11/09 07:34:03;;;;;;;;;0.00;0.00;;;;;;;;4769855;30;8863;-92
2022/11/09 07:36:30;;;;;;;;;0.00;0.00;;;;;;;;4769839;30;8928;-92
2022/11/09 07:38:55;;;;;;;;;0.00;0.00;;;;;;;;4769818;30;11662;-95
2022/11/09 07:41:21;;;;;;;;;0.00;0.00;;;;;;;;4769424;30;8862;-96
2022/11/09 07:43:46;;;;;;;;;0.00;0.00;;;;;;;;4769808;30;8847;-96
2022/11/09 07:46:11;;;;;;;;;0.00;0.00;;;;;;;;4770346;30;8875;-96
2022/11/09 07:48:36;;;;;;;;;0.00;0.00;;;;;;;;4766814;30;8850;-96
2022/11/09 07:51:01;;;;;;;;;0.00;0.00;;;;;;;;4752918;30;8901;-96
2022/11/09 07:53:27;;;;;;;;;0.00;0.00;;;;;;;;4755842;30;8868;-96
2022/11/09 07:55:56;;;;;;;;;0.00;0.00;;;;;;;;4759711;30;8881;-95
2022/11/09 07:58:22;;;;;;;;;0.00;0.00;;;;;;;;4760676;30;8940;-96
2022/11/09 08:00:47;;;;;;;;;0.00;0.00;;;;;;;;4759097;30;8927;-96
2022/11/09 08:03:12;;;;;;;;;0.00;0.00;;;;;;;;4759987;30;8877;-94
2022/11/09 08:05:38;;;;;;;;;0.00;0.00;;;;;;;;4752111;30;8871;-96
2022/11/09 08:08:04;;;;;;;;;0.00;0.00;;;;;;;;4759648;30;8884;-96
2022/11/09 08:10:30;;;;;;;;;0.00;0.00;;;;;;;;4755951;30;8861;-96
2022/11/09 08:12:56;;;;;;;;;0.00;0.00;;;;;;;;4756841;30;11680;-92
2022/11/09 08:15:22;;;;;;;;;0.00;0.00;;;;;;;;4757375;30;11673;-96
2022/11/09 08:17:47;;;;;;;;;0.00;0.00;;;;;;;;4745426;30;12667;-96
2022/11/09 08:20:14;;;;;;;;;0.00;0.00;;;;;;;;4759728;30;27813;-96
2022/11/09 08:22:40;;;;;;;;;0.00;0.00;;;;;;;;4744993;30;28593;-96
2022/11/09 08:25:05;;;;;;;;;0.00;0.00;;;;;;;;4735586;30;28357;-96
2022/11/09 08:27:38;;;;;;;;;0.00;0.00;;;;;;;;4740988;30;28632;-96
2022/11/09 08:30:04;;;;;;;;;0.00;0.00;;;;;;;;4734465;30;30002;-96
2022/11/09 08:32:29;;;;;;;;;0.00;0.00;;;;;;;;4733809;30;28466;-96
2022/11/09 08:34:54;;;;;;;;;0.00;0.00;;;;;;;;4733815;30;29156;-96
2022/11/09 08:37:21;;;;;;;;;0.00;0.00;;;;;;;;4757155;30;24835;-96
2022/11/09 08:39:46;;;;;;;;;0.00;0.00;;;;;;;;4757100;30;8854;-96
2022/11/09 08:42:11;;;;;;;;;0.00;0.00;;;;;;;;4760127;30;8877;-96
2022/11/09 08:44:36;;;;;;;;;0.00;0.00;;;;;;;;4752716;30;24049;-94
2022/11/09 08:47:02;;;;;;;;;0.00;0.00;;;;;;;;4759368;30;28262;-94
2022/11/09 08:49:27;;;;;;;;;0.00;0.00;;;;;;;;4765451;30;8921;-93
2022/11/09 08:51:52;;;;;;;;;0.00;0.00;;;;;;;;4761453;30;8877;-96
2022/11/09 08:54:17;;;;;;;;;0.00;0.00;;;;;;;;4760525;30;8913;-96
2022/11/09 08:56:45;;;;;;;;;0.00;0.00;;;;;;;;4758747;30;8870;-94
2022/11/09 08:59:10;;;;;;;;;0.00;0.00;;;;;;;;4758132;30;8870;-96
2022/11/09 09:01:35;;;;;;;;;0.00;0.00;;;;;;;;4765018;30;11691;-94
2022/11/09 09:04:00;;;;;;;;;0.00;0.00;;;;;;;;4757404;30;8880;-96
2022/11/09 09:06:25;;;;;;;;;0.00;0.00;;;;;;;;4743268;30;8818;-95
2022/11/09 09:08:51;;;;;;;;;0.00;0.00;;;;;;;;4761239;30;8869;-95
2022/11/09 09:11:16;;;;;;;;;0.00;0.00;;;;;;;;4768700;30;8873;-96
2022/11/09 09:13:41;;;;;;;;;0.00;0.00;;;;;;;;4744076;30;8889;-95
2022/11/09 09:16:14;;;;;;;;;0.00;0.00;;;;;;;;4769680;30;8905;-96
2022/11/09 09:18:39;;;;;;;;;0.00;0.00;;;;;;;;4745062;30;8880;-96
2022/11/09 09:21:06;;;;;;;;;0.00;0.00;;;;;;;;4766579;30;11696;-96
2022/11/09 09:23:31;;;;;;;;;0.00;0.00;;;;;;;;4754320;30;8858;-96
2022/11/09 09:25:56;;;;;;;;;0.00;0.00;;;;;;;;4757121;30;11761;-94
2022/11/09 09:28:22;;;;;;;;;0.00;0.00;;;;;;;;4741490;30;8869;-96
2022/11/09 09:30:47;;;;;;;;;0.00;0.00;;;;;;;;4757920;30;8814;-96
2022/11/09 09:33:12;;;;;;;;;0.00;0.00;;;;;;;;4763752;30;8885;-96
2022/11/09 09:35:37;;;;;;;;;0.00;0.00;;;;;;;;4763663;30;8871;-96
2022/11/09 09:38:03;;;;;;;;;0.00;0.00;;;;;;;;4754562;30;8869;-96
2022/11/09 09:40:35;;;;;;;;;0.00;0.00;;;;;;;;4759950;30;8857;-96
2022/11/09 09:43:01;;;;;;;;;0.00;0.00;;;;;;;;4753674;30;8887;-96
2022/11/09 09:45:27;;;;;;;;;0.00;0.00;;;;;;;;4753949;30;11696;-95
2022/11/09 09:48:02;;;;;;;;;0.00;0.00;;;;;;;;4754849;30;8882;-96
2022/11/09 09:50:49;;;;;;;;;0.00;0.00;;;;;;;;4751732;30;11703;-95
2022/11/09 09:53:33;;;;;;;;;0.00;0.00;;;;;;;;4771576;29;11713;-95
2022/11/09 09:56:05;;;;;;;;;0.00;0.00;;;;;;;;4756442;30;11667;-95
2022/11/09 09:58:31;;;;;;;;;0.00;0.00;;;;;;;;4759941;30;11660;-96
2022/11/09 10:01:08;;;;;;;;;1.00;1.00;;;;;;;;4756353;30;11696;-96
2022/11/09 10:03:35;;;;;;;;;0.00;0.00;;;;;;;;4787598;24;11717;-96
2022/11/09 10:06:13;;;;;;;;;0.00;0.00;;;;;;;;4774756;29;11706;-96
2022/11/09 10:08:44;;;;;;;;;0.00;0.00;;;;;;;;4773565;29;11708;-95
2022/11/09 10:11:21;;;;;;;;;0.00;0.00;;;;;;;;4765914;29;11700;-96
2022/11/09 10:13:56;;;;;;;;;0.00;0.00;;;;;;;;4769764;29;11674;-96
2022/11/09 10:16:40;;;;;;;;;0.00;0.00;;;;;;;;4776517;29;11720;-96
2022/11/09 10:19:23;;;;;;;;;0.00;0.00;;;;;;;;4765654;29;11736;-96
2022/11/09 10:22:05;;;;;;;;;0.00;0.00;;;;;;;;4765306;30;11635;-96
2022/11/09 10:24:30;;;;;;;;;0.00;0.00;;;;;;;;4773005;29;11726;-96
2022/11/09 10:26:57;;;;;;;;;0.00;0.00;;;;;;;;4770458;30;11799;-95
2022/11/09 10:29:25;;;;;;;;;0.00;0.00;;;;;;;;4767259;29;8790;-96
2022/11/09 10:31:53;;;;;;;;;0.00;0.00;;;;;;;;4768422;30;11723;-96
2022/11/09 10:34:22;;;;;;;;;0.00;0.00;;;;;;;;4785472;29;11993;-95
2022/11/09 10:36:52;;;;;;;;;0.00;0.00;;;;;;;;4785983;29;11720;-95
2022/11/09 10:39:18;;;;;;;;;0.00;0.00;;;;;;;;4767562;29;11705;-96
2022/11/09 10:41:45;;;;;;;;;0.00;0.00;;;;;;;;4762797;30;11687;-95
2022/11/09 10:44:13;;;;;;;;;0.00;0.00;;;;;;;;4769075;29;11686;-95
2022/11/09 10:47:00;;;;;;;;;0.00;0.00;;;;;;;;4770843;29;11693;-95
2022/11/09 10:49:25;;;;;;;;;0.00;0.00;;;;;;;;4796022;29;11698;-92
2022/11/09 10:51:50;;;;;;;;;0.00;0.00;;;;;;;;4762522;30;11799;-94
2022/11/09 10:54:20;;;;;;;;;0.00;0.00;;;;;;;;4785303;29;9024;-94
2022/11/09 10:56:50;;;;;;;;;0.00;0.00;;;;;;;;4766531;29;8983;-94
2022/11/09 10:59:35;;;;;;;;;0.00;0.00;;;;;;;;4765966;29;11699;-94
2022/11/09 11:02:00;;;;;;;;;0.00;0.00;;;;;;;;4760718;30;11732;-94
2022/11/09 11:04:26;;;;;;;;;0.00;0.00;;;;;;;;4762564;29;11682;-95
2022/11/09 11:06:51;;;;;;;;;0.00;0.00;;;;;;;;4776681;29;8911;-95
2022/11/09 11:09:19;;;;;;;;;0.00;0.00;;;;;;;;4763563;29;8907;-96
2022/11/09 11:11:44;;;;;;;;;0.00;0.00;;;;;;;;4766648;29;8856;-94
2022/11/09 11:14:28;;;;;;;;;0.00;0.00;;;;;;;;4757702;29;11752;-95
2022/11/09 11:16:55;;;;;;;;;0.00;0.00;;;;;;;;4758767;30;8887;-92
2022/11/09 11:19:32;;;;;;;;;0.00;0.00;;;;;;;;4760539;29;11645;-96
2022/11/09 11:22:10;;;;;;;;;0.00;0.00;;;;;;;;4758249;29;11706;-88
2022/11/09 11:24:51;;;;;;;;;0.00;0.00;;;;;;;;4776128;29;11681;-89
2022/11/09 11:27:20;;;;;;;;;0.00;0.00;;;;;;;;4776696;29;11674;-88
2022/11/09 11:29:49;;;;;;;;;0.00;0.00;;;;;;;;4755121;30;11794;-94
2022/11/09 11:32:15;;;;;;;;;0.00;0.00;;;;;;;;4777450;29;11710;-95
2022/11/09 11:34:40;;;;;;;;;0.00;0.00;;;;;;;;4766762;30;11683;-93
2022/11/09 11:37:12;;;;;;;;;0.00;0.00;;;;;;;;4772379;29;11736;-95
2022/11/09 11:39:44;;;;;;;;;0.00;0.00;;;;;;;;4770456;29;8808;-94
2022/11/09 11:42:15;;;;;;;;;0.00;0.00;;;;;;;;4784882;29;11685;-93
2022/11/09 11:44:52;;;;;;;;;0.00;0.00;;;;;;;;4763650;29;11694;-93
2022/11/09 11:47:24;;;;;;;;;0.00;0.00;;;;;;;;4770913;29;11730;-92
2022/11/09 11:49:55;;;;;;;;;0.00;0.00;;;;;;;;4770456;29;11796;-94
2022/11/09 11:52:33;;;;;;;;;0.00;0.00;;;;;;;;4776898;29;11669;-89
2022/11/09 11:55:02;;;;;;;;;0.00;0.00;;;;;;;;4771697;29;11739;-94
2022/11/09 11:57:27;;;;;;;;;0.00;0.00;;;;;;;;4760706;29;12543;-96
2022/11/09 12:00:07;;;;;;;;;0.00;0.00;;;;;;;;4759955;30;11762;-95
2022/11/09 12:03:08;;;;;;;;;0.00;0.00;;;;;;;;4764249;29;9484;-96
2022/11/09 12:05:39;;;;;;;;;0.00;0.00;;;;;;;;4687166;30;11768;-95
2022/11/09 12:08:23;;;;;;;;;0.00;0.00;;;;;;;;4684563;30;11788;-96
2022/11/09 12:10:51;;;;;;;;;0.00;0.00;;;;;;;;4684149;30;11754;-94
2022/11/09 12:13:22;;;;;;;;;0.00;0.00;;;;;;;;4703961;30;11730;-96
2022/11/09 12:15:52;;;;;;;;;0.00;0.00;;;;;;;;4672307;30;11782;-95
2022/11/09 12:18:44;;;;;;;;;0.00;0.00;;;;;;;;4679147;30;11718;-93
2022/11/09 12:21:09;;;;;;;;;0.00;0.00;;;;;;;;4689717;30;11865;-96
2022/11/09 12:23:52;;;;;;;;;0.00;0.00;;;;;;;;4699770;30;11749;-95
2022/11/09 12:26:27;;;;;;;;;0.00;0.00;;;;;;;;4685525;30;8929;-95
2022/11/09 12:29:08;;;;;;;;;0.00;0.00;;;;;;;;4688380;30;11754;-95
2022/11/09 12:31:42;;;;;;;;;0.00;0.00;;;;;;;;4693515;30;11777;-95
2022/11/09 12:34:10;;;;;;;;;0.00;0.00;;;;;;;;4670702;30;11811;-95
2022/11/09 12:36:39;;;;;;;;;0.00;0.00;;;;;;;;4683204;30;11737;-96
2022/11/09 12:39:24;;;;;;;;;0.00;0.00;;;;;;;;4707147;29;11739;-96
2022/11/09 12:41:52;;;;;;;;;0.00;0.00;;;;;;;;4776064;29;11831;-96
2022/11/09 12:44:29;;;;;;;;;0.00;0.00;;;;;;;;4788207;29;11717;-96
2022/11/09 12:47:04;;;;;;;;;0.00;0.00;;;;;;;;4761611;30;11698;-95
2022/11/09 12:49:40;;;;;;;;;0.00;0.00;;;;;;;;4766518;30;11776;-96
2022/11/09 12:52:09;;;;;;;;;0.00;0.00;;;;;;;;4770961;29;11713;-96
2022/11/09 12:54:35;;;;;;;;;0.00;0.00;;;;;;;;4778995;29;11719;-96
2022/11/09 12:57:03;;;;;;;;;0.00;0.00;;;;;;;;4767880;29;11642;-96
2022/11/09 12:59:28;;;;;;;;;0.00;0.00;;;;;;;;4771417;30;11702;-96
2022/11/09 13:01:54;;;;;;;;;0.00;0.00;;;;;;;;4762342;30;11718;-92
2022/11/09 13:04:20;;;;;;;;;0.00;0.00;;;;;;;;4767304;29;8868;-96
2022/11/09 13:07:04;;;;;;;;;0.00;0.00;;;;;;;;4757495;30;11728;-96
2022/11/09 13:09:30;;;;;;;;;0.00;0.00;;;;;;;;4757070;30;11740;-96
2022/11/09 13:11:55;;;;;;;;;0.00;0.00;;;;;;;;4760171;29;11828;-96
2022/11/09 13:14:20;;;;;;;;;0.00;0.00;;;;;;;;4758480;29;8907;-95
2022/11/09 13:16:46;;;;;;;;;0.00;0.00;;;;;;;;4759692;30;8913;-92
2022/11/09 13:19:31;;;;;;;;;0.00;0.00;;;;;;;;4755714;29;8864;-94
2022/11/09 13:21:57;;;;;;;;;0.00;0.00;;;;;;;;4766929;30;11706;-96
2022/11/09 13:24:33;;;;;;;;;0.00;0.00;;;;;;;;4756958;29;11854;-95
2022/11/09 13:26:59;;;;;;;;;0.00;0.00;;;;;;;;4755807;30;8848;-96
2022/11/09 13:29:25;;;;;;;;;0.00;0.00;;;;;;;;4758234;29;11702;-96
2022/11/09 13:31:59;;;;;;;;;0.00;0.00;;;;;;;;4767571;29;11785;-96
2022/11/09 13:34:37;;;;;;;;;0.00;0.00;;;;;;;;4760801;29;8872;-96
2022/11/09 13:37:21;;;;;;;;;0.00;0.00;;;;;;;;4754447;30;11705;-96
2022/11/09 13:39:47;;;;;;;;;0.00;0.00;;;;;;;;4767732;29;11848;-96
2022/11/09 13:42:24;;;;;;;;;0.00;0.00;;;;;;;;4763462;30;11853;-96
2022/11/09 13:44:50;;;;;;;;;0.00;0.00;;;;;;;;4752640;29;8864;-96
2022/11/09 13:47:22;;;;;;;;;0.00;0.00;;;;;;;;4756291;30;11745;-96
2022/11/09 13:49:49;;;;;;;;;0.00;0.00;;;;;;;;4759682;29;9003;-96
2022/11/09 13:52:34;;;;;;;;;0.00;0.00;;;;;;;;4755059;30;12708;-96
2022/11/09 13:54:59;;;;;;;;;0.00;0.00;;;;;;;;4767663;29;11824;-96
2022/11/09 13:57:25;;;;;;;;;0.00;0.00;;;;;;;;4769532;29;11783;-95
2022/11/09 13:59:51;;;;;;;;;0.00;0.00;;;;;;;;4771602;29;8962;-95
2022/11/09 14:02:23;;;;;;;;;0.00;0.00;;;;;;;;4769785;30;11710;-96
2022/11/09 14:04:49;;;;;;;;;0.00;0.00;;;;;;;;4770760;29;8835;-96
2022/11/09 14:07:14;;;;;;;;;0.00;0.00;;;;;;;;4771072;29;11689;-96
2022/11/09 14:10:00;;;;;;;;;0.00;0.00;;;;;;;;4765165;30;8876;-96
2022/11/09 14:12:25;;;;;;;;;0.00;0.00;;;;;;;;4760717;29;8887;-96
2022/11/09 14:14:57;;;;;;;;;0.00;0.00;;;;;;;;4757295;30;11738;-96
2022/11/09 14:17:28;;;;;;;;;0.00;0.00;;;;;;;;4759516;29;8946;-96
2022/11/09 14:20:32;;;;;;;;;0.00;0.00;;;;;;;;4771091;29;11832;-96
2022/11/09 14:22:58;;;;;;;;;0.00;0.00;;;;;;;;4689687;30;11637;-96
2022/11/09 14:25:24;;;;;;;;;0.00;0.00;;;;;;;;4693175;30;11554;-96
2022/11/09 14:27:56;;;;;;;;;0.00;0.00;;;;;;;;4707889;30;11683;-96
2022/11/09 14:30:30;;;;;;;;;0.00;0.00;;;;;;;;4685046;30;11544;-96
2022/11/09 14:32:56;;;;;;;;;0.00;0.00;;;;;;;;4683731;30;11642;-96
2022/11/09 14:35:36;;;;;;;;;0.00;0.00;;;;;;;;4688832;30;11757;-96
2022/11/09 14:38:13;;;;;;;;;0.00;0.00;;;;;;;;4682790;30;11619;-96
2022/11/09 14:40:43;;;;;;;;;0.00;0.00;;;;;;;;4694267;30;11651;-95
2022/11/09 14:43:27;;;;;;;;;0.00;0.00;;;;;;;;4684817;30;11745;-96
2022/11/09 14:45:55;;;;;;;;;0.00;0.00;;;;;;;;4682340;30;11834;-96
2022/11/09 14:48:22;;;;;;;;;0.00;0.00;;;;;;;;4684484;30;11642;-95
2022/11/09 14:50:48;;;;;;;;;0.00;0.00;;;;;;;;4683880;30;11611;-96
2022/11/09 14:53:16;;;;;;;;;0.00;0.00;;;;;;;;4707050;30;11699;-95
2022/11/09 14:55:42;;;;;;;;;0.00;0.00;;;;;;;;4758617;29;11699;-96
2022/11/09 14:58:11;;;;;;;;;0.00;0.00;;;;;;;;4764216;30;11825;-95